sensor_id;sensor_type;location;lat;lon;timestamp;temperature;humidity
3792;DHT22;1911;53.768;11.474;2023-07-16T00:01:26;22.60;99.90
3792;DHT22;1911;53.768;11.474;2023-07-16T00:03:51;22.50;99.90
3792;DHT22;1911;53.768;11.474;2023-07-16T00:06:17;22.40;99.90
3792;DHT22;1911;53.768;11.474;2023-07-16T00:08:42;22.20;99.90
3792;DHT22;1911;53.768;11.474;2023-07-16T00:11:08;22.10;80.50
3792;DHT22;1911;53.768;11.474;2023-07-16T00:13:33;22.00;88.80
3792;DHT22;1911;53.768;11.474;2023-07-16T00:15:59;21.80;94.80
3792;DHT22;1911;53.768;11.474;2023-07-16T00:18:25;21.70;95.50
3792;DHT22;1911;53.768;11.474;2023-07-16T00:20:50;21.70;99.90
3792;DHT22;1911;53.768;11.474;2023-07-16T00:23:16;21.50;99.90
3792;DHT22;1911;53.768;11.474;2023-07-16T00:25:41;21.40;99.90
3792;DHT22;1911;53.768;11.474;2023-07-16T00:28:07;21.40;99.90
3792;DHT22;1911;53.768;11.474;2023-07-16T00:30:32;21.20;99.90
3792;DHT22;1911;53.768;11.474;2023-07-16T00:32:58;21.10;99.90
3792;DHT22;1911;53.768;11.474;2023-07-16T00:35:23;21.00;99.90
3792;DHT22;1911;53.768;11.474;2023-07-16T00:37:49;20.90;99.90
3792;DHT22;1911;53.768;11.474;2023-07-16T00:40:14;20.80;99.90
3792;DHT22;1911;53.768;11.474;2023-07-16T00:42:40;20.70;99.90
3792;DHT22;1911;53.768;11.474;2023-07-16T00:45:11;20.70;99.90
3792;DHT22;1911;53.768;11.474;2023-07-16T00:47:39;20.60;99.90
3792;DHT22;1911;53.768;11.474;2023-07-16T00:50:05;20.60;99.90
3792;DHT22;1911;53.768;11.474;2023-07-16T00:52:31;20.60;99.90
3792;DHT22;1911;53.768;11.474;2023-07-16T00:54:58;20.50;99.90
3792;DHT22;1911;53.768;11.474;2023-07-16T00:57:24;20.50;99.90
3792;DHT22;1911;53.768;11.474;2023-07-16T00:59:49;20.50;99.90
3792;DHT22;1911;53.768;11.474;2023-07-16T01:02:15;20.50;99.90
3792;DHT22;1911;53.768;11.474;2023-07-16T01:04:41;20.50;99.90
3792;DHT22;1911;53.768;11.474;2023-07-16T01:07:08;20.50;99.90
3792;DHT22;1911;53.768;11.474;2023-07-16T01:09:37;20.50;99.90
3792;DHT22;1911;53.768;11.474;2023-07-16T01:12:05;20.40;99.90
3792;DHT22;1911;53.768;11.474;2023-07-16T01:14:31;20.40;99.90
3792;DHT22;1911;53.768;11.474;2023-07-16T01:16:57;20.40;99.90
3792;DHT22;1911;53.768;11.474;2023-07-16T01:19:25;20.40;99.90
3792;DHT22;1911;53.768;11.474;2023-07-16T01:24:53;20.40;99.90
3792;DHT22;1911;53.768;11.474;2023-07-16T01:30:08;20.40;99.90
3792;DHT22;1911;53.768;11.474;2023-07-16T01:32:37;20.40;99.90
3792;DHT22;1911;53.768;11.474;2023-07-16T01:35:04;20.40;99.90
3792;DHT22;1911;53.768;11.474;2023-07-16T01:37:31;20.30;99.90
3792;DHT22;1911;53.768;11.474;2023-07-16T01:39:57;20.30;99.90
3792;DHT22;1911;53.768;11.474;2023-07-16T01:42:22;20.30;99.90
3792;DHT22;1911;53.768;11.474;2023-07-16T01:44:48;20.30;99.90
3792;DHT22;1911;53.768;11.474;2023-07-16T01:50:11;20.20;99.90
3792;DHT22;1911;53.768;11.474;2023-07-16T01:52:36;20.20;99.90
3792;DHT22;1911;53.768;11.474;2023-07-16T01:55:02;20.10;99.90
3792;DHT22;1911;53.768;11.474;2023-07-16T01:57:28;20.20;99.90
3792;DHT22;1911;53.768;11.474;2023-07-16T01:59:53;20.10;99.90
3792;DHT22;1911;53.768;11.474;2023-07-16T02:02:19;20.10;99.90
3792;DHT22;1911;53.768;11.474;2023-07-16T02:04:44;20.10;99.90
3792;DHT22;1911;53.768;11.474;2023-07-16T02:07:10;20.00;99.90
3792;DHT22;1911;53.768;11.474;2023-07-16T02:09:35;20.00;99.90
3792;DHT22;1911;53.768;11.474;2023-07-16T02:12:01;20.00;99.90
3792;DHT22;1911;53.768;11.474;2023-07-16T02:14:26;20.00;99.90
3792;DHT22;1911;53.768;11.474;2023-07-16T02:16:52;20.00;99.90
3792;DHT22;1911;53.768;11.474;2023-07-16T02:19:17;20.00;99.90
3792;DHT22;1911;53.768;11.474;2023-07-16T02:21:43;20.00;99.90
3792;DHT22;1911;53.768;11.474;2023-07-16T02:24:09;20.00;99.90
3792;DHT22;1911;53.768;11.474;2023-07-16T02:26:34;20.00;99.90
3792;DHT22;1911;53.768;11.474;2023-07-16T02:29:00;19.90;99.90
3792;DHT22;1911;53.768;11.474;2023-07-16T02:31:25;19.90;99.90
3792;DHT22;1911;53.768;11.474;2023-07-16T02:33:51;19.90;99.90
3792;DHT22;1911;53.768;11.474;2023-07-16T02:36:17;19.90;99.90
3792;DHT22;1911;53.768;11.474;2023-07-16T02:38:42;19.80;99.90
3792;DHT22;1911;53.768;11.474;2023-07-16T02:41:08;19.70;99.90
3792;DHT22;1911;53.768;11.474;2023-07-16T02:43:34;19.70;99.90
3792;DHT22;1911;53.768;11.474;2023-07-16T02:45:59;19.60;99.90
3792;DHT22;1911;53.768;11.474;2023-07-16T02:48:25;19.60;99.90
3792;DHT22;1911;53.768;11.474;2023-07-16T02:50:50;19.50;99.90
3792;DHT22;1911;53.768;11.474;2023-07-16T02:53:16;19.50;99.90
3792;DHT22;1911;53.768;11.474;2023-07-16T02:55:41;19.50;99.90
3792;DHT22;1911;53.768;11.474;2023-07-16T02:58:07;19.40;99.90
3792;DHT22;1911;53.768;11.474;2023-07-16T03:00:33;19.40;99.90
3792;DHT22;1911;53.768;11.474;2023-07-16T03:02:59;19.40;99.90
3792;DHT22;1911;53.768;11.474;2023-07-16T03:05:26;19.40;99.90
3792;DHT22;1911;53.768;11.474;2023-07-16T03:07:52;19.30;99.90
3792;DHT22;1911;53.768;11.474;2023-07-16T03:10:17;19.30;99.90
3792;DHT22;1911;53.768;11.474;2023-07-16T03:12:43;19.30;99.90
3792;DHT22;1911;53.768;11.474;2023-07-16T03:15:09;19.30;99.90
3792;DHT22;1911;53.768;11.474;2023-07-16T03:17:35;19.30;99.90
3792;DHT22;1911;53.768;11.474;2023-07-16T03:20:01;19.30;99.90
3792;DHT22;1911;53.768;11.474;2023-07-16T03:22:26;19.30;99.90
3792;DHT22;1911;53.768;11.474;2023-07-16T03:24:52;19.30;99.90
3792;DHT22;1911;53.768;11.474;2023-07-16T03:27:17;19.30;99.90
3792;DHT22;1911;53.768;11.474;2023-07-16T03:29:43;19.20;99.90
3792;DHT22;1911;53.768;11.474;2023-07-16T03:32:08;19.10;99.90
3792;DHT22;1911;53.768;11.474;2023-07-16T03:34:34;19.10;99.90
3792;DHT22;1911;53.768;11.474;2023-07-16T03:36:59;19.10;99.90
3792;DHT22;1911;53.768;11.474;2023-07-16T03:39:25;19.10;99.90
3792;DHT22;1911;53.768;11.474;2023-07-16T03:41:50;19.00;99.90
3792;DHT22;1911;53.768;11.474;2023-07-16T03:44:16;19.00;99.90
3792;DHT22;1911;53.768;11.474;2023-07-16T03:46:42;19.00;99.90
3792;DHT22;1911;53.768;11.474;2023-07-16T03:49:08;19.00;99.90
3792;DHT22;1911;53.768;11.474;2023-07-16T03:51:34;19.10;99.90
3792;DHT22;1911;53.768;11.474;2023-07-16T03:53:59;19.10;99.90
3792;DHT22;1911;53.768;11.474;2023-07-16T03:56:25;19.10;99.90
3792;DHT22;1911;53.768;11.474;2023-07-16T03:58:50;19.10;99.90
3792;DHT22;1911;53.768;11.474;2023-07-16T04:01:16;19.10;99.90
3792;DHT22;1911;53.768;11.474;2023-07-16T04:03:41;19.10;99.90
3792;DHT22;1911;53.768;11.474;2023-07-16T04:06:09;19.00;99.90
3792;DHT22;1911;53.768;11.474;2023-07-16T04:08:35;19.00;99.90
3792;DHT22;1911;53.768;11.474;2023-07-16T04:11:02;19.00;99.90
3792;DHT22;1911;53.768;11.474;2023-07-16T04:13:28;19.00;99.90
3792;DHT22;1911;53.768;11.474;2023-07-16T04:15:53;19.00;99.90
3792;DHT22;1911;53.768;11.474;2023-07-16T04:18:21;19.00;99.90
3792;DHT22;1911;53.768;11.474;2023-07-16T04:20:46;19.00;99.90
3792;DHT22;1911;53.768;11.474;2023-07-16T04:23:12;19.10;99.90
3792;DHT22;1911;53.768;11.474;2023-07-16T04:25:38;19.10;99.90
3792;DHT22;1911;53.768;11.474;2023-07-16T04:28:03;19.00;99.90
3792;DHT22;1911;53.768;11.474;2023-07-16T04:30:29;19.00;99.90
3792;DHT22;1911;53.768;11.474;2023-07-16T04:32:55;19.00;99.90
3792;DHT22;1911;53.768;11.474;2023-07-16T04:35:20;19.00;99.90
3792;DHT22;1911;53.768;11.474;2023-07-16T04:37:46;19.00;99.90
3792;DHT22;1911;53.768;11.474;2023-07-16T04:40:12;19.00;99.90
3792;DHT22;1911;53.768;11.474;2023-07-16T04:42:37;19.00;99.90
3792;DHT22;1911;53.768;11.474;2023-07-16T04:45:04;19.00;99.90
3792;DHT22;1911;53.768;11.474;2023-07-16T04:47:30;19.00;99.90
3792;DHT22;1911;53.768;11.474;2023-07-16T04:49:58;19.00;99.90
3792;DHT22;1911;53.768;11.474;2023-07-16T04:52:23;18.90;99.90
3792;DHT22;1911;53.768;11.474;2023-07-16T04:54:49;19.00;99.90
3792;DHT22;1911;53.768;11.474;2023-07-16T04:57:15;19.10;99.90
3792;DHT22;1911;53.768;11.474;2023-07-16T04:59:40;19.10;99.90
3792;DHT22;1911;53.768;11.474;2023-07-16T05:02:06;19.20;99.90
3792;DHT22;1911;53.768;11.474;2023-07-16T05:04:32;19.20;99.90
3792;DHT22;1911;53.768;11.474;2023-07-16T05:06:58;19.20;99.90
3792;DHT22;1911;53.768;11.474;2023-07-16T05:09:24;19.30;99.90
3792;DHT22;1911;53.768;11.474;2023-07-16T05:11:49;19.30;99.90
3792;DHT22;1911;53.768;11.474;2023-07-16T05:14:15;19.30;99.90
3792;DHT22;1911;53.768;11.474;2023-07-16T05:16:40;19.30;99.90
3792;DHT22;1911;53.768;11.474;2023-07-16T05:19:06;19.20;99.90
3792;DHT22;1911;53.768;11.474;2023-07-16T05:21:31;19.30;99.90
3792;DHT22;1911;53.768;11.474;2023-07-16T05:23:57;19.30;99.90
3792;DHT22;1911;53.768;11.474;2023-07-16T05:26:22;19.40;99.90
3792;DHT22;1911;53.768;11.474;2023-07-16T05:28:49;19.70;99.90
3792;DHT22;1911;53.768;11.474;2023-07-16T05:31:15;19.70;99.90
3792;DHT22;1911;53.768;11.474;2023-07-16T05:33:40;19.80;99.90
3792;DHT22;1911;53.768;11.474;2023-07-16T05:36:06;20.00;99.90
3792;DHT22;1911;53.768;11.474;2023-07-16T05:38:32;20.00;99.90
3792;DHT22;1911;53.768;11.474;2023-07-16T05:41:02;20.00;99.90
3792;DHT22;1911;53.768;11.474;2023-07-16T05:43:28;20.10;99.90
3792;DHT22;1911;53.768;11.474;2023-07-16T05:45:53;20.30;99.90
3792;DHT22;1911;53.768;11.474;2023-07-16T05:48:19;20.60;99.90
3792;DHT22;1911;53.768;11.474;2023-07-16T05:50:44;21.20;99.90
3792;DHT22;1911;53.768;11.474;2023-07-16T05:53:11;21.20;99.90
3792;DHT22;1911;53.768;11.474;2023-07-16T05:55:36;22.60;99.90
3792;DHT22;1911;53.768;11.474;2023-07-16T05:58:04;24.60;1.00
3792;DHT22;1911;53.768;11.474;2023-07-16T06:00:30;26.60;99.90
3792;DHT22;1911;53.768;11.474;2023-07-16T06:02:55;28.10;1.00
3792;DHT22;1911;53.768;11.474;2023-07-16T06:05:21;29.20;99.90
3792;DHT22;1911;53.768;11.474;2023-07-16T06:07:47;30.10;65.70
3792;DHT22;1911;53.768;11.474;2023-07-16T06:10:13;30.40;1.00
3792;DHT22;1911;53.768;11.474;2023-07-16T06:12:39;30.50;1.00
3792;DHT22;1911;53.768;11.474;2023-07-16T06:15:05;30.70;1.00
3792;DHT22;1911;53.768;11.474;2023-07-16T06:17:30;31.00;1.00
3792;DHT22;1911;53.768;11.474;2023-07-16T06:19:56;31.00;1.00
3792;DHT22;1911;53.768;11.474;2023-07-16T06:22:23;31.40;1.00
3792;DHT22;1911;53.768;11.474;2023-07-16T06:24:48;31.50;1.00
3792;DHT22;1911;53.768;11.474;2023-07-16T06:27:14;31.30;1.00
3792;DHT22;1911;53.768;11.474;2023-07-16T06:29:39;31.70;1.00
3792;DHT22;1911;53.768;11.474;2023-07-16T06:32:05;31.60;1.00
3792;DHT22;1911;53.768;11.474;2023-07-16T06:34:31;31.60;1.00
3792;DHT22;1911;53.768;11.474;2023-07-16T06:36:56;32.10;1.00
3792;DHT22;1911;53.768;11.474;2023-07-16T06:39:22;32.40;1.00
3792;DHT22;1911;53.768;11.474;2023-07-16T06:41:48;32.60;1.00
3792;DHT22;1911;53.768;11.474;2023-07-16T06:44:13;32.30;1.00
3792;DHT22;1911;53.768;11.474;2023-07-16T06:46:39;32.60;1.00
3792;DHT22;1911;53.768;11.474;2023-07-16T06:49:05;30.80;1.00
3792;DHT22;1911;53.768;11.474;2023-07-16T06:51:32;29.30;1.00
3792;DHT22;1911;53.768;11.474;2023-07-16T06:53:59;27.70;1.00
3792;DHT22;1911;53.768;11.474;2023-07-16T06:56:25;26.60;1.00
3792;DHT22;1911;53.768;11.474;2023-07-16T06:58:50;26.00;1.00
3792;DHT22;1911;53.768;11.474;2023-07-16T07:01:16;26.00;1.00
3792;DHT22;1911;53.768;11.474;2023-07-16T07:03:41;26.50;1.00
3792;DHT22;1911;53.768;11.474;2023-07-16T07:06:07;27.80;1.00
3792;DHT22;1911;53.768;11.474;2023-07-16T07:08:36;28.90;1.00
3792;DHT22;1911;53.768;11.474;2023-07-16T07:11:01;29.80;1.00
3792;DHT22;1911;53.768;11.474;2023-07-16T07:13:27;30.60;1.00
3792;DHT22;1911;53.768;11.474;2023-07-16T07:15:55;31.30;1.00
3792;DHT22;1911;53.768;11.474;2023-07-16T07:18:20;32.20;1.00
3792;DHT22;1911;53.768;11.474;2023-07-16T07:20:46;32.80;1.00
3792;DHT22;1911;53.768;11.474;2023-07-16T07:23:16;33.20;1.00
3792;DHT22;1911;53.768;11.474;2023-07-16T07:25:41;33.30;99.90
3792;DHT22;1911;53.768;11.474;2023-07-16T07:28:07;34.00;99.90
3792;DHT22;1911;53.768;11.474;2023-07-16T07:30:33;33.90;99.90
3792;DHT22;1911;53.768;11.474;2023-07-16T07:32:58;34.00;99.90
3792;DHT22;1911;53.768;11.474;2023-07-16T07:35:24;33.90;99.90
3792;DHT22;1911;53.768;11.474;2023-07-16T07:37:50;33.40;99.90
3792;DHT22;1911;53.768;11.474;2023-07-16T07:40:15;31.90;99.90
3792;DHT22;1911;53.768;11.474;2023-07-16T07:42:41;30.90;99.90
3792;DHT22;1911;53.768;11.474;2023-07-16T07:45:07;31.40;99.90
3792;DHT22;1911;53.768;11.474;2023-07-16T07:47:33;31.70;99.90
3792;DHT22;1911;53.768;11.474;2023-07-16T07:49:58;30.60;99.90
3792;DHT22;1911;53.768;11.474;2023-07-16T07:52:26;30.30;99.90
3792;DHT22;1911;53.768;11.474;2023-07-16T07:54:52;31.10;99.90
3792;DHT22;1911;53.768;11.474;2023-07-16T07:57:19;31.00;99.90
3792;DHT22;1911;53.768;11.474;2023-07-16T07:59:45;30.40;99.90
3792;DHT22;1911;53.768;11.474;2023-07-16T08:02:11;29.80;99.90
3792;DHT22;1911;53.768;11.474;2023-07-16T08:04:36;28.60;99.90
3792;DHT22;1911;53.768;11.474;2023-07-16T08:07:02;27.30;99.90
3792;DHT22;1911;53.768;11.474;2023-07-16T08:09:28;26.50;99.90
3792;DHT22;1911;53.768;11.474;2023-07-16T08:11:53;26.30;99.90
3792;DHT22;1911;53.768;11.474;2023-07-16T08:14:19;25.60;99.90
3792;DHT22;1911;53.768;11.474;2023-07-16T08:16:44;25.60;99.90
3792;DHT22;1911;53.768;11.474;2023-07-16T08:19:10;25.70;99.90
3792;DHT22;1911;53.768;11.474;2023-07-16T08:21:36;26.40;99.90
3792;DHT22;1911;53.768;11.474;2023-07-16T08:24:04;26.60;99.90
3792;DHT22;1911;53.768;11.474;2023-07-16T08:26:30;26.40;99.90
3792;DHT22;1911;53.768;11.474;2023-07-16T08:28:56;27.10;99.90
3792;DHT22;1911;53.768;11.474;2023-07-16T08:31:21;27.20;99.90
3792;DHT22;1911;53.768;11.474;2023-07-16T08:33:47;27.40;99.90
3792;DHT22;1911;53.768;11.474;2023-07-16T08:36:12;27.80;99.90
3792;DHT22;1911;53.768;11.474;2023-07-16T08:38:38;27.70;99.90
3792;DHT22;1911;53.768;11.474;2023-07-16T08:41:04;26.80;99.90
3792;DHT22;1911;53.768;11.474;2023-07-16T08:43:29;26.20;99.90
3792;DHT22;1911;53.768;11.474;2023-07-16T08:45:56;26.10;99.90
3792;DHT22;1911;53.768;11.474;2023-07-16T08:48:22;26.00;99.90
3792;DHT22;1911;53.768;11.474;2023-07-16T08:50:48;25.30;1.00
3792;DHT22;1911;53.768;11.474;2023-07-16T08:53:17;25.20;1.00
3792;DHT22;1911;53.768;11.474;2023-07-16T08:55:45;26.40;1.00
3792;DHT22;1911;53.768;11.474;2023-07-16T08:58:13;26.70;1.00
3792;DHT22;1911;53.768;11.474;2023-07-16T09:00:44;26.90;1.00
3792;DHT22;1911;53.768;11.474;2023-07-16T09:03:13;27.30;1.00
3792;DHT22;1911;53.768;11.474;2023-07-16T09:05:39;27.50;1.00
3792;DHT22;1911;53.768;11.474;2023-07-16T09:08:06;27.20;1.00
3792;DHT22;1911;53.768;11.474;2023-07-16T09:10:32;26.60;1.00
3792;DHT22;1911;53.768;11.474;2023-07-16T09:12:58;25.70;1.00
3792;DHT22;1911;53.768;11.474;2023-07-16T09:15:24;25.30;1.00
3792;DHT22;1911;53.768;11.474;2023-07-16T09:17:50;24.80;1.00
3792;DHT22;1911;53.768;11.474;2023-07-16T09:20:16;24.70;1.00
3792;DHT22;1911;53.768;11.474;2023-07-16T09:22:43;25.40;1.00
3792;DHT22;1911;53.768;11.474;2023-07-16T09:25:09;26.20;1.00
3792;DHT22;1911;53.768;11.474;2023-07-16T09:27:35;26.90;1.00
3792;DHT22;1911;53.768;11.474;2023-07-16T09:30:02;27.00;1.00
3792;DHT22;1911;53.768;11.474;2023-07-16T09:32:36;26.40;1.00
3792;DHT22;1911;53.768;11.474;2023-07-16T09:35:09;25.90;1.00
3792;DHT22;1911;53.768;11.474;2023-07-16T09:37:36;26.10;1.00
3792;DHT22;1911;53.768;11.474;2023-07-16T09:40:02;26.40;1.00
3792;DHT22;1911;53.768;11.474;2023-07-16T09:42:29;26.40;1.00
3792;DHT22;1911;53.768;11.474;2023-07-16T09:44:56;26.60;1.00
3792;DHT22;1911;53.768;11.474;2023-07-16T09:47:22;26.90;1.00
3792;DHT22;1911;53.768;11.474;2023-07-16T09:49:48;27.10;1.00
3792;DHT22;1911;53.768;11.474;2023-07-16T09:52:14;27.10;1.00
3792;DHT22;1911;53.768;11.474;2023-07-16T09:54:40;27.10;1.00
3792;DHT22;1911;53.768;11.474;2023-07-16T09:57:07;27.10;1.00
3792;DHT22;1911;53.768;11.474;2023-07-16T09:59:34;27.10;1.00
3792;DHT22;1911;53.768;11.474;2023-07-16T10:02:00;26.90;1.00
3792;DHT22;1911;53.768;11.474;2023-07-16T10:04:25;26.70;1.00
3792;DHT22;1911;53.768;11.474;2023-07-16T10:07:01;26.20;1.00
3792;DHT22;1911;53.768;11.474;2023-07-16T10:09:50;25.90;1.00
3792;DHT22;1911;53.768;11.474;2023-07-16T10:12:18;26.20;1.00
3792;DHT22;1911;53.768;11.474;2023-07-16T10:14:55;26.60;1.00
3792;DHT22;1911;53.768;11.474;2023-07-16T10:17:25;26.50;99.90
3792;DHT22;1911;53.768;11.474;2023-07-16T10:22:32;26.20;99.10
3792;DHT22;1911;53.768;11.474;2023-07-16T10:24:57;25.70;64.50
3792;DHT22;1911;53.768;11.474;2023-07-16T10:27:28;25.50;99.90
3792;DHT22;1911;53.768;11.474;2023-07-16T10:29:54;25.80;99.90
3792;DHT22;1911;53.768;11.474;2023-07-16T10:32:20;26.10;99.90
3792;DHT22;1911;53.768;11.474;2023-07-16T10:34:46;26.20;99.90
3792;DHT22;1911;53.768;11.474;2023-07-16T10:37:12;26.20;99.90
3792;DHT22;1911;53.768;11.474;2023-07-16T10:39:49;26.10;99.90
3792;DHT22;1911;53.768;11.474;2023-07-16T10:42:16;26.20;99.90
3792;DHT22;1911;53.768;11.474;2023-07-16T10:44:42;26.30;99.90
3792;DHT22;1911;53.768;11.474;2023-07-16T10:47:09;26.10;68.10
3792;DHT22;1911;53.768;11.474;2023-07-16T10:49:35;26.00;40.30
3792;DHT22;1911;53.768;11.474;2023-07-16T10:52:01;26.30;54.00
3792;DHT22;1911;53.768;11.474;2023-07-16T10:54:27;26.50;97.90
3792;DHT22;1911;53.768;11.474;2023-07-16T10:56:53;26.60;88.30
3792;DHT22;1911;53.768;11.474;2023-07-16T10:59:19;26.50;99.90
3792;DHT22;1911;53.768;11.474;2023-07-16T11:01:45;26.60;79.60
3792;DHT22;1911;53.768;11.474;2023-07-16T11:04:11;26.60;99.10
3792;DHT22;1911;53.768;11.474;2023-07-16T11:06:37;26.70;9.90
3792;DHT22;1911;53.768;11.474;2023-07-16T11:09:09;26.90;99.90
3792;DHT22;1911;53.768;11.474;2023-07-16T11:11:35;26.80;64.50
3792;DHT22;1911;53.768;11.474;2023-07-16T11:14:04;26.10;1.00
3792;DHT22;1911;53.768;11.474;2023-07-16T11:16:34;25.70;1.00
3792;DHT22;1911;53.768;11.474;2023-07-16T11:19:05;26.00;1.00
3792;DHT22;1911;53.768;11.474;2023-07-16T11:21:33;26.20;1.00
3792;DHT22;1911;53.768;11.474;2023-07-16T11:24:12;26.60;28.10
3792;DHT22;1911;53.768;11.474;2023-07-16T11:26:38;27.00;10.50
3792;DHT22;1911;53.768;11.474;2023-07-16T11:29:14;26.90;1.00
3792;DHT22;1911;53.768;11.474;2023-07-16T11:31:40;27.10;20.30
3792;DHT22;1911;53.768;11.474;2023-07-16T11:34:20;26.90;1.00
3792;DHT22;1911;53.768;11.474;2023-07-16T11:36:46;26.90;1.00
3792;DHT22;1911;53.768;11.474;2023-07-16T11:39:12;27.00;1.00
3792;DHT22;1911;53.768;11.474;2023-07-16T11:41:38;26.90;1.00
3792;DHT22;1911;53.768;11.474;2023-07-16T11:44:04;26.80;1.00
3792;DHT22;1911;53.768;11.474;2023-07-16T11:46:33;26.70;1.00
3792;DHT22;1911;53.768;11.474;2023-07-16T11:49:00;26.80;1.00
3792;DHT22;1911;53.768;11.474;2023-07-16T11:51:25;26.60;1.00
3792;DHT22;1911;53.768;11.474;2023-07-16T11:53:51;26.50;1.00
3792;DHT22;1911;53.768;11.474;2023-07-16T11:56:17;26.50;1.00
3792;DHT22;1911;53.768;11.474;2023-07-16T11:58:42;26.70;1.00
3792;DHT22;1911;53.768;11.474;2023-07-16T12:01:08;26.60;1.00
3792;DHT22;1911;53.768;11.474;2023-07-16T12:03:34;26.50;1.00
3792;DHT22;1911;53.768;11.474;2023-07-16T12:06:00;26.60;1.00
3792;DHT22;1911;53.768;11.474;2023-07-16T12:08:25;27.00;1.00
3792;DHT22;1911;53.768;11.474;2023-07-16T12:10:51;27.40;1.00
3792;DHT22;1911;53.768;11.474;2023-07-16T12:13:16;27.40;1.00
3792;DHT22;1911;53.768;11.474;2023-07-16T12:15:42;27.30;1.00
3792;DHT22;1911;53.768;11.474;2023-07-16T12:18:08;27.40;1.00
3792;DHT22;1911;53.768;11.474;2023-07-16T12:20:34;27.30;1.00
3792;DHT22;1911;53.768;11.474;2023-07-16T12:23:01;27.50;1.00
3792;DHT22;1911;53.768;11.474;2023-07-16T12:25:28;27.30;1.00
3792;DHT22;1911;53.768;11.474;2023-07-16T12:27:54;27.10;1.00
3792;DHT22;1911;53.768;11.474;2023-07-16T12:30:23;27.00;1.00
3792;DHT22;1911;53.768;11.474;2023-07-16T12:32:49;27.30;1.00
3792;DHT22;1911;53.768;11.474;2023-07-16T12:35:14;27.40;1.00
3792;DHT22;1911;53.768;11.474;2023-07-16T12:37:40;26.90;1.00
3792;DHT22;1911;53.768;11.474;2023-07-16T12:40:06;26.50;1.00
3792;DHT22;1911;53.768;11.474;2023-07-16T12:42:32;26.30;1.00
3792;DHT22;1911;53.768;11.474;2023-07-16T12:44:58;26.00;1.00
3792;DHT22;1911;53.768;11.474;2023-07-16T12:47:23;26.00;1.00
3792;DHT22;1911;53.768;11.474;2023-07-16T12:49:49;25.80;1.00
3792;DHT22;1911;53.768;11.474;2023-07-16T12:52:15;26.00;1.00
3792;DHT22;1911;53.768;11.474;2023-07-16T12:54:40;26.20;1.00
3792;DHT22;1911;53.768;11.474;2023-07-16T12:57:06;26.20;1.00
3792;DHT22;1911;53.768;11.474;2023-07-16T12:59:32;26.10;1.00
3792;DHT22;1911;53.768;11.474;2023-07-16T13:01:57;26.20;1.00
3792;DHT22;1911;53.768;11.474;2023-07-16T13:04:23;26.50;1.00
3792;DHT22;1911;53.768;11.474;2023-07-16T13:06:48;26.60;1.00
3792;DHT22;1911;53.768;11.474;2023-07-16T13:09:15;26.30;1.00
3792;DHT22;1911;53.768;11.474;2023-07-16T13:11:42;26.20;1.00
3792;DHT22;1911;53.768;11.474;2023-07-16T13:14:08;26.20;1.00
3792;DHT22;1911;53.768;11.474;2023-07-16T13:16:34;26.10;1.00
3792;DHT22;1911;53.768;11.474;2023-07-16T13:18:59;26.10;1.00
3792;DHT22;1911;53.768;11.474;2023-07-16T13:21:25;26.00;1.00
3792;DHT22;1911;53.768;11.474;2023-07-16T13:23:50;25.70;1.00
3792;DHT22;1911;53.768;11.474;2023-07-16T13:26:16;25.50;1.00
3792;DHT22;1911;53.768;11.474;2023-07-16T13:28:41;25.30;1.00
3792;DHT22;1911;53.768;11.474;2023-07-16T13:31:07;25.50;1.00
3792;DHT22;1911;53.768;11.474;2023-07-16T13:33:33;25.70;1.00
3792;DHT22;1911;53.768;11.474;2023-07-16T13:35:58;25.90;1.00
3792;DHT22;1911;53.768;11.474;2023-07-16T13:38:26;26.00;1.00
3792;DHT22;1911;53.768;11.474;2023-07-16T13:40:52;26.00;1.00
3792;DHT22;1911;53.768;11.474;2023-07-16T13:43:18;26.00;1.00
3792;DHT22;1911;53.768;11.474;2023-07-16T13:45:43;25.80;1.00
3792;DHT22;1911;53.768;11.474;2023-07-16T13:48:09;26.00;1.00
3792;DHT22;1911;53.768;11.474;2023-07-16T13:50:35;26.00;1.00
3792;DHT22;1911;53.768;11.474;2023-07-16T13:53:00;25.70;1.00
3792;DHT22;1911;53.768;11.474;2023-07-16T13:55:27;25.40;1.00
3792;DHT22;1911;53.768;11.474;2023-07-16T13:57:53;25.40;1.00
3792;DHT22;1911;53.768;11.474;2023-07-16T14:00:21;25.50;1.00
3792;DHT22;1911;53.768;11.474;2023-07-16T14:02:46;25.60;1.00
3792;DHT22;1911;53.768;11.474;2023-07-16T14:05:12;25.70;1.00
3792;DHT22;1911;53.768;11.474;2023-07-16T14:07:39;25.90;1.00
3792;DHT22;1911;53.768;11.474;2023-07-16T14:10:05;25.90;1.00
3792;DHT22;1911;53.768;11.474;2023-07-16T14:12:30;25.80;1.00
3792;DHT22;1911;53.768;11.474;2023-07-16T14:14:56;25.50;1.00
3792;DHT22;1911;53.768;11.474;2023-07-16T14:17:22;25.40;1.00
3792;DHT22;1911;53.768;11.474;2023-07-16T14:19:49;25.40;1.00
3792;DHT22;1911;53.768;11.474;2023-07-16T14:22:15;25.50;1.00
3792;DHT22;1911;53.768;11.474;2023-07-16T14:24:41;25.50;1.00
3792;DHT22;1911;53.768;11.474;2023-07-16T14:27:08;25.50;1.00
3792;DHT22;1911;53.768;11.474;2023-07-16T14:29:37;25.50;1.00
3792;DHT22;1911;53.768;11.474;2023-07-16T14:32:02;25.20;1.00
3792;DHT22;1911;53.768;11.474;2023-07-16T14:34:28;25.20;1.00
3792;DHT22;1911;53.768;11.474;2023-07-16T14:36:54;25.10;1.00
3792;DHT22;1911;53.768;11.474;2023-07-16T14:39:20;24.90;1.00
3792;DHT22;1911;53.768;11.474;2023-07-16T14:41:46;24.80;1.00
3792;DHT22;1911;53.768;11.474;2023-07-16T14:44:12;24.80;1.00
3792;DHT22;1911;53.768;11.474;2023-07-16T14:46:37;24.80;1.00
3792;DHT22;1911;53.768;11.474;2023-07-16T14:49:03;24.80;1.00
3792;DHT22;1911;53.768;11.474;2023-07-16T14:51:29;25.00;1.00
3792;DHT22;1911;53.768;11.474;2023-07-16T14:53:55;25.20;1.00
3792;DHT22;1911;53.768;11.474;2023-07-16T14:56:21;25.40;1.00
3792;DHT22;1911;53.768;11.474;2023-07-16T14:58:47;25.30;1.00
3792;DHT22;1911;53.768;11.474;2023-07-16T15:01:13;25.20;1.00
3792;DHT22;1911;53.768;11.474;2023-07-16T15:03:39;25.30;1.00
3792;DHT22;1911;53.768;11.474;2023-07-16T15:06:08;25.30;1.00
3792;DHT22;1911;53.768;11.474;2023-07-16T15:08:41;25.20;1.00
3792;DHT22;1911;53.768;11.474;2023-07-16T15:11:07;25.10;1.00
3792;DHT22;1911;53.768;11.474;2023-07-16T15:13:33;25.30;1.00
3792;DHT22;1911;53.768;11.474;2023-07-16T15:15:58;25.40;1.00
3792;DHT22;1911;53.768;11.474;2023-07-16T15:18:25;25.40;1.00
3792;DHT22;1911;53.768;11.474;2023-07-16T15:20:58;25.40;1.00
3792;DHT22;1911;53.768;11.474;2023-07-16T15:23:27;25.20;1.00
3792;DHT22;1911;53.768;11.474;2023-07-16T15:25:54;25.10;1.00
3792;DHT22;1911;53.768;11.474;2023-07-16T15:28:20;25.00;1.00
3792;DHT22;1911;53.768;11.474;2023-07-16T15:30:47;25.00;1.00
3792;DHT22;1911;53.768;11.474;2023-07-16T15:33:12;25.20;1.00
3792;DHT22;1911;53.768;11.474;2023-07-16T15:35:38;25.40;1.00
3792;DHT22;1911;53.768;11.474;2023-07-16T15:38:04;25.50;1.00
3792;DHT22;1911;53.768;11.474;2023-07-16T15:40:33;25.60;1.00
3792;DHT22;1911;53.768;11.474;2023-07-16T15:42:59;25.80;1.00
3792;DHT22;1911;53.768;11.474;2023-07-16T15:45:25;25.70;1.00
3792;DHT22;1911;53.768;11.474;2023-07-16T15:47:50;25.50;1.00
3792;DHT22;1911;53.768;11.474;2023-07-16T15:50:26;25.20;1.00
3792;DHT22;1911;53.768;11.474;2023-07-16T15:52:52;25.00;1.00
3792;DHT22;1911;53.768;11.474;2023-07-16T15:55:18;25.00;1.00
3792;DHT22;1911;53.768;11.474;2023-07-16T15:57:43;24.90;1.00